createdAt,value
2022-11-09T00:01:29.942Z,100413.53
2022-11-09T00:03:58.868Z,100413.22
2022-11-09T00:06:27.383Z,100402.91
2022-11-09T00:08:56.448Z,100403.19
2022-11-09T00:11:24.299Z,100411.50
2022-11-09T00:13:51.940Z,100412.22
2022-11-09T00:16:21.371Z,100415.03
2022-11-09T00:18:49.491Z,100419.13
2022-11-09T00:21:19.080Z,100421.13
2022-11-09T00:23:47.399Z,100425.19
2022-11-09T00:26:18.200Z,100423.63
2022-11-09T00:28:46.141Z,100424.41
2022-11-09T00:31:15.642Z,100427.38
2022-11-09T00:33:43.307Z,100433.47
2022-11-09T00:36:13.500Z,100426.13
2022-11-09T00:38:42.478Z,100435.97
2022-11-09T00:41:12.417Z,100426.44
2022-11-09T00:43:41.446Z,100425.66
2022-11-09T00:46:09.436Z,100429.72
2022-11-09T00:48:37.824Z,100428.47
2022-11-09T00:51:06.443Z,100421.56
2022-11-09T00:53:34.143Z,100416.41
2022-11-09T00:56:03.596Z,100407.00
2022-11-09T00:58:33.337Z,100408.59
2022-11-09T01:01:08.519Z,100406.53
2022-11-09T01:03:36.233Z,100402.81
2022-11-09T01:06:04.612Z,100409.53
2022-11-09T01:08:33.564Z,100407.94
2022-11-09T01:11:06.664Z,100406.69
2022-11-09T01:13:35.087Z,100401.69
2022-11-09T01:16:07.052Z,100410.44
2022-11-09T01:18:34.964Z,100406.69
2022-11-09T01:21:04.660Z,100418.56
2022-11-09T01:23:32.919Z,100414.03
2022-11-09T01:26:01.509Z,100424.81
2022-11-09T01:28:29.339Z,100422.34
2022-11-09T01:30:57.010Z,100418.44
2022-11-09T01:33:26.184Z,100432.66
2022-11-09T01:35:53.896Z,100430.94
2022-11-09T01:38:21.533Z,100427.50
2022-11-09T01:40:49.226Z,100433.44
2022-11-09T01:43:18.591Z,100428.72
2022-11-09T01:45:51.001Z,100423.28
2022-11-09T01:48:21.858Z,100428.41
2022-11-09T01:50:58.408Z,100422.16
2022-11-09T01:53:31.381Z,100430.25
2022-11-09T01:56:03.845Z,100438.53
2022-11-09T01:58:37.243Z,100434.63
2022-11-09T02:01:11.083Z,100435.22
2022-11-09T02:03:43.712Z,100434.44
2022-11-09T02:06:17.529Z,100437.41
2022-11-09T02:08:46.271Z,100439.75
2022-11-09T02:11:17.262Z,100431.03
2022-11-09T02:13:49.210Z,100429.91
2022-11-09T02:16:17.262Z,100426.19
2022-11-09T02:18:51.423Z,100411.81
2022-11-09T02:21:20.745Z,100414.00
2022-11-09T02:23:48.393Z,100412.72
2022-11-09T02:26:20.406Z,100426.31
2022-11-09T02:28:48.411Z,100419.75
2022-11-09T02:31:16.983Z,100420.34
2022-11-09T02:33:46.393Z,100426.44
2022-11-09T02:36:14.037Z,100434.75
2022-11-09T02:38:43.065Z,100441.31
2022-11-09T02:41:13.125Z,100440.72
2022-11-09T02:43:41.849Z,100438.06
2022-11-09T02:46:09.481Z,100449.16
2022-11-09T02:48:37.093Z,100427.13
2022-11-09T02:51:04.776Z,100435.09
2022-11-09T02:53:32.370Z,100441.00
2022-11-09T02:56:05.059Z,100436.16
2022-11-09T02:58:32.652Z,100426.81
2022-11-09T03:01:00.485Z,100425.41
2022-11-09T03:03:28.056Z,100441.66
2022-11-09T03:05:55.725Z,100445.59
2022-11-09T03:08:23.345Z,100427.47
2022-11-09T03:10:51.011Z,100437.47
2022-11-09T03:13:20.293Z,100432.94
2022-11-09T03:15:48.247Z,100435.91
2022-11-09T03:18:15.884Z,100442.59
2022-11-09T03:20:43.517Z,100434.97
2022-11-09T03:23:11.156Z,100436.03
2022-11-09T03:25:38.911Z,100454.47
2022-11-09T03:28:08.695Z,100445.25
2022-11-09T03:30:37.704Z,100449.59
2022-11-09T03:33:09.960Z,100441.94
2022-11-09T03:35:37.997Z,100439.59
2022-11-09T03:38:05.501Z,100447.38
2022-11-09T03:40:33.340Z,100450.81
2022-11-09T03:43:00.961Z,100448.00
2022-11-09T03:45:28.887Z,100458.75
2022-11-09T03:48:00.365Z,100458.28
2022-11-09T03:50:29.497Z,100458.88
2022-11-09T03:52:57.504Z,100479.66
2022-11-09T03:55:25.342Z,100469.63
2022-11-09T03:57:53.143Z,100475.13
2022-11-09T04:00:22.861Z,100477.78
2022-11-09T04:02:50.949Z,100471.97
2022-11-09T04:05:20.653Z,100481.03
2022-11-09T04:07:49.301Z,100487.13
2022-11-09T04:10:17.299Z,100493.81
2022-11-09T04:12:44.957Z,100483.03
2022-11-09T04:15:13.044Z,100493.94
2022-11-09T04:17:41.055Z,100499.72
2022-11-09T04:20:09.225Z,100483.81
2022-11-09T04:22:38.435Z,100484.13
2022-11-09T04:25:06.838Z,100487.38
2022-11-09T04:27:34.487Z,100497.81
2022-11-09T04:30:02.144Z,100494.56
2022-11-09T04:32:29.801Z,100507.03
2022-11-09T04:34:57.409Z,100500.47
2022-11-09T04:37:25.056Z,100504.22
2022-11-09T04:39:54.031Z,100511.38
2022-11-09T04:42:21.644Z,100512.97
2022-11-09T04:44:49.340Z,100515.41
2022-11-09T04:47:17.024Z,100507.78
2022-11-09T04:49:44.651Z,100508.69
2022-11-09T04:52:12.325Z,100508.19
2022-11-09T04:54:39.955Z,100520.84
2022-11-09T04:57:08.931Z,100514.78
2022-11-09T04:59:36.535Z,100518.19
2022-11-09T05:02:04.174Z,100516.31
2022-11-09T05:04:31.808Z,100506.03
2022-11-09T05:06:59.459Z,100509.75
2022-11-09T05:09:27.079Z,100512.13
2022-11-09T05:11:54.720Z,100514.00
2022-11-09T05:14:23.744Z,100500.25
2022-11-09T05:16:51.341Z,100522.06
2022-11-09T05:19:19.208Z,100500.53
2022-11-09T05:21:46.812Z,100514.09
2022-11-09T05:24:13.680Z,100517.56
2022-11-09T05:26:42.930Z,100514.91
2022-11-09T05:29:12.621Z,100517.84
2022-11-09T05:31:43.677Z,100514.22
2022-11-09T05:34:14.415Z,100521.69
2022-11-09T05:36:42.105Z,100516.72
2022-11-09T05:39:09.973Z,100532.63
2022-11-09T05:41:37.581Z,100530.25
2022-11-09T05:44:05.463Z,100525.53
2022-11-09T05:46:34.034Z,100523.19
2022-11-09T05:49:03.270Z,100522.13
2022-11-09T05:51:30.904Z,100522.88
2022-11-09T05:53:58.547Z,100520.53
2022-11-09T05:56:26.189Z,100522.72
2022-11-09T05:58:53.853Z,100517.09
2022-11-09T06:01:21.494Z,100522.53
2022-11-09T06:03:49.277Z,100523.31
2022-11-09T06:06:18.412Z,100521.94
2022-11-09T06:08:46.234Z,100513.19
2022-11-09T06:11:19.883Z,100531.47
2022-11-09T06:13:50.636Z,100532.06
2022-11-09T06:16:18.295Z,100532.06
2022-11-09T06:18:45.938Z,100532.06
2022-11-09T06:21:13.656Z,100541.59
2022-11-09T06:23:42.668Z,100535.50
2022-11-09T06:26:11.861Z,100544.53
2022-11-09T06:28:40.564Z,100558.84
2022-11-09T06:31:11.227Z,100559.44
2022-11-09T06:33:38.880Z,100560.03
2022-11-09T06:36:06.931Z,100559.84
2022-11-09T06:38:34.739Z,100559.84
2022-11-09T06:41:03.910Z,100562.03
2022-11-09T06:43:31.592Z,100562.31
2022-11-09T06:46:00.857Z,100559.66
2022-11-09T06:48:28.929Z,100559.66
2022-11-09T06:51:03.495Z,100564.78
2022-11-09T06:53:32.278Z,100556.84
2022-11-09T06:56:00.047Z,100558.69
2022-11-09T06:58:29.896Z,100561.66
2022-11-09T07:00:58.100Z,100566.16
2022-11-09T07:03:26.376Z,100571.25
2022-11-09T07:05:54.130Z,100577.34
2022-11-09T07:08:21.816Z,100573.44
2022-11-09T07:10:49.577Z,100577.66
2022-11-09T07:13:17.382Z,100583.25
2022-11-09T07:15:46.511Z,100590.13
2022-11-09T07:18:14.222Z,100581.09
2022-11-09T07:20:41.875Z,100591.72
2022-11-09T07:23:09.494Z,100581.09
2022-11-09T07:25:37.162Z,100587.16
2022-11-09T07:28:05.760Z,100580.50
2022-11-09T07:30:33.438Z,100582.13
2022-11-09T07:33:10.448Z,100579.88
2022-11-09T07:35:38.538Z,100582.44
2022-11-09T07:38:06.347Z,100583.88
2022-11-09T07:40:34.381Z,100584.09
2022-11-09T07:43:02.379Z,100588.81
2022-11-09T07:45:30.871Z,100587.91
2022-11-09T07:47:59.163Z,100592.59
2022-11-09T07:50:29.248Z,100585.63
2022-11-09T07:52:57.895Z,100602.03
2022-11-09T07:55:26.568Z,100597.69
2022-11-09T07:57:57.490Z,100598.63
2022-11-09T08:00:25.750Z,100593.84
2022-11-09T08:02:53.387Z,100604.94
2022-11-09T08:05:21.120Z,100602.75
2022-11-09T08:07:54.979Z,100604.19
2022-11-09T08:10:22.888Z,100622.66
2022-11-09T08:12:54.436Z,100615.66
2022-11-09T08:15:22.214Z,100614.47
2022-11-09T08:17:49.894Z,100607.03
2022-11-09T08:20:17.910Z,100601.47
2022-11-09T08:22:45.755Z,100611.06
2022-11-09T08:25:16.008Z,100616.13
2022-11-09T08:27:43.671Z,100613.50
2022-11-09T08:30:15.548Z,100609.78
2022-11-09T08:32:44.445Z,100616.13
2022-11-09T08:35:17.535Z,100621.47
2022-11-09T08:37:46.772Z,100614.16
2022-11-09T08:40:17.807Z,100623.22
2022-11-09T08:42:45.834Z,100631.13
2022-11-09T08:45:13.944Z,100628.81
2022-11-09T08:47:42.008Z,100634.13
2022-11-09T08:50:11.268Z,100633.66
2022-11-09T08:52:39.222Z,100630.09
2022-11-09T08:55:06.881Z,100636.53
2022-11-09T08:57:35.899Z,100633.53
2022-11-09T09:00:04.273Z,100626.50
2022-11-09T09:02:31.936Z,100634.50
2022-11-09T09:04:59.575Z,100640.91
2022-11-09T09:07:27.363Z,100639.81
2022-11-09T09:09:55.036Z,100638.56
2022-11-09T09:12:22.968Z,100650.16
2022-11-09T09:14:52.218Z,100634.78
2022-11-09T09:17:19.863Z,100646.41
2022-11-09T09:19:50.073Z,100642.31
2022-11-09T09:22:18.205Z,100647.66
2022-11-09T09:24:45.623Z,100656.44
2022-11-09T09:27:13.244Z,100646.09
2022-11-09T09:29:40.934Z,100636.81
2022-11-09T09:32:09.959Z,100650.47
2022-11-09T09:34:37.572Z,100644.69
2022-11-09T09:37:05.240Z,100640.13
2022-11-09T09:39:32.906Z,100647.94
2022-11-09T09:42:05.555Z,100642.63
2022-11-09T09:44:41.088Z,100656.75
2022-11-09T09:47:14.278Z,100649.34
2022-11-09T09:49:45.758Z,100663.44
2022-11-09T09:52:21.708Z,100654.16
2022-11-09T09:54:55.674Z,100655.28
2022-11-09T09:57:25.431Z,100665.19
2022-11-09T09:59:55.879Z,100665.69
2022-11-09T10:02:26.772Z,100671.78
2022-11-09T10:04:56.903Z,100686.38
2022-11-09T10:07:31.299Z,100668.78
2022-11-09T10:10:18.151Z,100678.66
2022-11-09T10:13:07.295Z,100673.91
2022-11-09T10:15:42.583Z,100678.72
2022-11-09T10:18:29.204Z,100679.16
2022-11-09T10:21:12.511Z,100685.63
2022-11-09T10:23:49.008Z,100682.06
2022-11-09T10:26:21.536Z,100689.38
2022-11-09T10:29:14.923Z,100689.50
2022-11-09T10:31:43.554Z,100693.53
2022-11-09T10:34:18.972Z,100691.56
2022-11-09T10:36:53.588Z,100691.28
2022-11-09T10:39:22.557Z,100688.16
2022-11-09T10:41:50.212Z,100684.44
2022-11-09T10:44:20.004Z,100691.56
2022-11-09T10:47:04.946Z,100715.78
2022-11-09T10:49:35.032Z,100687.16
2022-11-09T10:52:02.757Z,100704.25
2022-11-09T10:54:33.739Z,100702.91
2022-11-09T10:57:11.931Z,100693.88
2022-11-09T11:05:35.882Z,100689.88
2022-11-09T11:11:41.091Z,100705.88
2022-11-09T11:14:18.432Z,100698.19
2022-11-09T11:16:50.745Z,100689.25
2022-11-09T11:19:34.267Z,100685.50
2022-11-09T11:22:21.820Z,100713.75
2022-11-09T11:24:55.260Z,100693.06
2022-11-09T11:27:28.561Z,100681.66
2022-11-09T11:30:04.234Z,100688.22
2022-11-09T11:32:32.192Z,100684.75
2022-11-09T11:35:01.343Z,100678.78
2022-11-09T11:37:46.045Z,100683.88
2022-11-09T11:40:21.327Z,100692.28
2022-11-09T11:43:05.733Z,100683.66
2022-11-09T11:45:41.000Z,100685.00
2022-11-09T11:48:46.613Z,100685.44
2022-11-09T11:51:20.092Z,100690.53
2022-11-09T11:54:02.873Z,100703.75
2022-11-09T11:56:35.672Z,100709.34
2022-11-09T11:59:38.717Z,100732.84
2022-11-09T12:02:28.473Z,100714.88
2022-11-09T12:05:36.282Z,100704.00
2022-11-09T12:08:15.846Z,100722.91
2022-11-09T12:10:53.315Z,100723.28
2022-11-09T12:13:38.735Z,100717.69
2022-11-09T12:16:13.047Z,100721.34
2022-11-09T12:18:50.264Z,100716.22
2022-11-09T12:21:20.423Z,100717.16
2022-11-09T12:24:06.523Z,100726.28
2022-11-09T12:27:04.689Z,100729.28
2022-11-09T12:29:47.489Z,100714.84
2022-11-09T12:32:28.869Z,100718.56
2022-11-09T12:35:03.032Z,100715.22
2022-11-09T12:37:36.449Z,100708.22
2022-11-09T12:40:14.766Z,100702.41
2022-11-09T12:42:51.314Z,100708.53
2022-11-09T12:45:27.344Z,100714.97
2022-11-09T12:47:59.415Z,100714.34
2022-11-09T12:50:29.180Z,100716.28
2022-11-09T12:52:57.367Z,100713.16
2022-11-09T12:55:33.573Z,100707.38
2022-11-09T12:58:02.652Z,100756.69
2022-11-09T13:00:48.951Z,100721.13
2022-11-09T13:03:23.229Z,100732.25
2022-11-09T13:06:10.729Z,100720.66
2022-11-09T13:08:39.986Z,100745.50
2022-11-09T13:11:37.057Z,100723.38
2022-11-09T13:14:40.420Z,100721.78
2022-11-09T13:17:45.351Z,100726.16
2022-11-09T13:20:54.685Z,100737.44
2022-11-09T13:23:59.449Z,100749.94
2022-11-09T13:26:43.308Z,100746.06
2022-11-09T13:29:23.755Z,100757.84
2022-11-09T13:32:05.933Z,100756.47
2022-11-09T13:34:42.963Z,100762.31
2022-11-09T13:37:46.860Z,100758.81
2022-11-09T13:40:47.053Z,100776.97
2022-11-09T13:43:18.559Z,100769.44
2022-11-09T13:45:48.516Z,100770.81
2022-11-09T13:48:36.171Z,100781.91
2022-11-09T13:51:06.807Z,100792.03
2022-11-09T13:53:54.469Z,100770.59
2022-11-09T13:56:28.532Z,100777.00
2022-11-09T13:59:00.530Z,100771.34
2022-11-09T14:01:34.149Z,100781.94
2022-11-09T14:04:04.975Z,100778.19
2022-11-09T14:06:34.320Z,100785.72
2022-11-09T14:09:03.610Z,100776.47
2022-11-09T14:11:58.949Z,100804.50
2022-11-09T14:14:50.732Z,100785.59
2022-11-09T14:17:26.958Z,100794.97
2022-11-09T14:20:12.046Z,100807.25
2022-11-09T14:22:41.521Z,100806.75
2022-11-09T14:25:15.667Z,100807.63
2022-11-09T14:27:56.980Z,100802.56
2022-11-09T14:30:25.271Z,100807.84
2022-11-09T14:32:54.853Z,100816.13
2022-11-09T14:35:27.157Z,100823.78
2022-11-09T14:37:56.273Z,100832.69
2022-11-09T14:40:26.745Z,100831.28
2022-11-09T14:42:57.237Z,100828.50
2022-11-09T14:45:25.470Z,100844.75
2022-11-09T14:47:55.945Z,100840.97
2022-11-09T14:50:26.904Z,100850.34
2022-11-09T14:52:56.494Z,100836.06
2022-11-09T14:55:26.095Z,100844.19
2022-11-09T14:57:55.994Z,100847.91
2022-11-09T15:00:27.544Z,100838.66
2022-11-09T15:02:55.945Z,100848.81
2022-11-09T15:05:39.845Z,100858.75
2022-11-09T15:08:16.987Z,100857.97
2022-11-09T15:10:50.638Z,100869.56
2022-11-09T15:13:19.172Z,100864.03
2022-11-09T15:15:53.618Z,100874.84
2022-11-09T15:18:31.829Z,100874.63
2022-11-09T15:21:20.130Z,100874.44
2022-11-09T15:23:49.675Z,100895.00
2022-11-09T15:26:37.894Z,100897.44
2022-11-09T15:29:20.267Z,100886.31
2022-11-09T15:31:58.720Z,100894.78
2022-11-09T15:34:29.982Z,100901.06
2022-11-09T15:36:58.975Z,100906.28
2022-11-09T15:39:26.822Z,100900.59
2022-11-09T15:41:54.450Z,100885.66
2022-11-09T15:44:22.263Z,100897.16
2022-11-09T15:46:52.129Z,100890.84
2022-11-09T15:49:22.660Z,100906.50
2022-11-09T15:51:50.426Z,100916.00
2022-11-09T15:54:19.694Z,100915.75
2022-11-09T15:56:48.008Z,100919.69
2022-11-09T15:59:20.257Z,100932.06
2022-11-09T16:01:47.965Z,100926.16
2022-11-09T16:04:15.621Z,100930.66
2022-11-09T16:06:46.598Z,100943.66
2022-11-09T16:09:15.189Z,100939.44
2022-11-09T16:11:44.344Z,100941.09
2022-11-09T16:14:12.054Z,100949.56
2022-11-09T16:16:39.758Z,100951.91
2022-11-09T16:19:07.376Z,100958.31
2022-11-09T16:21:35.061Z,100959.09
2022-11-09T16:24:02.695Z,100958.63
2022-11-09T16:26:30.379Z,100966.59
2022-11-09T16:29:00.430Z,100971.38
2022-11-09T16:31:50.371Z,100975.13
2022-11-09T16:34:16.075Z,100979.44
2022-11-09T16:36:49.729Z,100984.84
2022-11-09T16:39:20.325Z,100993.59
2022-11-09T16:41:51.099Z,100983.75
2022-11-09T16:44:24.000Z,100993.59
2022-11-09T16:46:52.091Z,101011.16
2022-11-09T16:49:19.788Z,101008.31
2022-11-09T16:51:47.411Z,101016.84
2022-11-09T16:54:15.056Z,101017.72
2022-11-09T16:56:42.708Z,101026.00
2022-11-09T16:59:11.592Z,101030.00
2022-11-09T17:01:40.695Z,101030.59
2022-11-09T17:04:08.473Z,101036.47
2022-11-09T17:06:37.185Z,101047.66
2022-11-09T17:09:05.043Z,101047.16
2022-11-09T17:11:32.755Z,101039.00
2022-11-09T17:14:01.574Z,101046.44
2022-11-09T17:16:31.104Z,101056.25
2022-11-09T17:19:02.206Z,101052.81
2022-11-09T17:21:30.902Z,101061.88
2022-11-09T17:23:58.693Z,101069.03
2022-11-09T17:26:28.459Z,101070.88
2022-11-09T17:28:56.088Z,101075.13
2022-11-09T17:31:27.034Z,101079.34
2022-11-09T17:34:00.973Z,101083.59
2022-11-09T17:36:57.286Z,101093.69
2022-11-09T17:39:17.977Z,101096.34
2022-11-09T17:41:45.576Z,101108.53
2022-11-09T17:44:13.364Z,101104.81
2022-11-09T17:46:40.992Z,101110.63
2022-11-09T17:49:10.414Z,101114.81
2022-11-09T17:51:39.698Z,101100.22
2022-11-09T17:54:07.367Z,101111.13
2022-11-09T17:56:35.437Z,101118.00
2022-11-09T17:59:05.420Z,101118.78
2022-11-09T18:01:39.398Z,101131.28
2022-11-09T18:04:08.936Z,101133.06
2022-11-09T18:06:36.457Z,101133.13
2022-11-09T18:11:53.761Z,101147.19
2022-11-09T18:14:21.376Z,101155.16
2022-11-09T18:16:48.984Z,101157.28
2022-11-09T18:19:16.604Z,101158.94
2022-11-09T18:21:45.808Z,101164.78
2022-11-09T18:24:14.943Z,101167.75
2022-11-09T18:26:42.590Z,101172.06
2022-11-09T18:29:10.217Z,101178.66
2022-11-09T18:31:37.892Z,101174.41
2022-11-09T18:34:05.503Z,101179.22
2022-11-09T18:36:33.184Z,101179.47
2022-11-09T18:39:03.076Z,101185.03
2022-11-09T18:41:32.101Z,101188.78
2022-11-09T18:43:59.816Z,101200.69
2022-11-09T18:46:30.690Z,101194.34
2022-11-09T18:48:58.319Z,101197.25
2022-11-09T18:51:25.968Z,101202.06
2022-11-09T18:53:53.614Z,101210.00
2022-11-09T18:56:24.375Z,101211.06
2022-11-09T18:58:55.279Z,101212.16
2022-11-09T19:01:24.553Z,101214.00
2022-11-09T19:03:57.842Z,101222.25
2022-11-09T19:06:27.439Z,101220.66
2022-11-09T19:09:12.917Z,101215.91
2022-11-09T19:11:41.791Z,101227.88
2022-11-09T19:14:11.723Z,101239.06
2022-11-09T19:16:39.536Z,101235.63
2022-11-09T19:19:07.244Z,101244.66
2022-11-09T19:21:38.277Z,101243.84
2022-11-09T19:24:07.300Z,101249.94
2022-11-09T19:26:36.388Z,101256.59
2022-11-09T19:29:06.078Z,101264.84
2022-11-09T19:31:36.986Z,101274.16
2022-11-09T19:34:04.629Z,101271.78
2022-11-09T19:36:33.617Z,101280.78
2022-11-09T19:39:02.128Z,101282.66
2022-11-09T19:41:29.939Z,101284.53
2022-11-09T19:43:59.217Z,101286.94
2022-11-09T19:46:27.547Z,101288.28
2022-11-09T19:48:56.518Z,101296.78
2022-11-09T19:51:24.313Z,101306.38
2022-11-09T19:53:53.053Z,101304.28
2022-11-09T19:56:21.830Z,101300.59
2022-11-09T19:58:50.514Z,101307.53
2022-11-09T20:01:18.997Z,101309.16
2022-11-09T20:03:50.301Z,101322.97
2022-11-09T20:06:20.475Z,101325.63
2022-11-09T20:08:48.700Z,101325.38
2022-11-09T20:11:37.742Z,101326.69
2022-11-09T20:14:06.245Z,101330.69
2022-11-09T20:16:35.520Z,101343.19
2022-11-09T20:19:04.360Z,101350.88
2022-11-09T20:21:33.336Z,101348.50
2022-11-09T20:24:01.000Z,101354.09
2022-11-09T20:26:29.281Z,101360.72
2022-11-09T20:28:57.125Z,101354.63
2022-11-09T20:31:25.204Z,101360.97
2022-11-09T20:33:52.819Z,101362.06
2022-11-09T20:36:20.505Z,101367.63
2022-11-09T20:38:49.620Z,101366.84
2022-11-09T20:41:20.546Z,101380.34
2022-11-09T20:43:50.731Z,101375.59
2022-11-09T20:46:20.504Z,101378.25
2022-11-09T20:48:56.073Z,101384.63
2022-11-09T20:51:25.600Z,101385.66
2022-11-09T20:54:03.957Z,101386.25
2022-11-09T20:56:34.560Z,101389.16
2022-11-09T20:59:02.272Z,101387.06
2022-11-09T21:01:30.146Z,101391.03
2022-11-09T21:03:57.803Z,101393.94
2022-11-09T21:06:25.433Z,101399.53
2022-11-09T21:08:55.919Z,101399.00
2022-11-09T21:11:25.439Z,101410.13
2022-11-09T21:13:54.552Z,101405.88
2022-11-09T21:16:24.100Z,101413.88
2022-11-09T21:18:51.753Z,101408.84
2022-11-09T21:21:21.297Z,101411.75
2022-11-09T21:24:07.824Z,101418.41
2022-11-09T21:26:54.518Z,101410.72
2022-11-09T21:29:41.629Z,101419.19
2022-11-09T21:32:10.682Z,101424.50
2022-11-09T21:34:38.616Z,101425.28
2022-11-09T21:37:06.490Z,101424.47
2022-11-09T21:39:34.331Z,101434.78
2022-11-09T21:42:04.900Z,101426.31
2022-11-09T21:44:34.325Z,101429.72
2022-11-09T21:47:02.264Z,101431.03
2022-11-09T21:49:30.152Z,101437.13
2022-11-09T21:51:58.261Z,101440.31
2022-11-09T21:54:25.885Z,101442.94
2022-11-09T21:56:53.879Z,101444.53
2022-11-09T21:59:22.749Z,101446.91
2022-11-09T22:01:50.577Z,101450.38
2022-11-09T22:04:18.566Z,101455.44
2022-11-09T22:06:46.291Z,101466.84
2022-11-09T22:09:16.610Z,101466.28
2022-11-09T22:12:01.846Z,101475.31
2022-11-09T22:14:48.558Z,101484.88
2022-11-09T22:17:16.412Z,101477.16
2022-11-09T22:20:01.580Z,101479.56
2022-11-09T22:22:30.938Z,101492.28
2022-11-09T22:24:59.295Z,101475.34
2022-11-09T22:27:27.036Z,101489.13
2022-11-09T22:29:55.989Z,101487.00
2022-11-09T22:32:23.820Z,101485.97
2022-11-09T22:34:51.527Z,101483.03
2022-11-09T22:37:19.175Z,101485.97
2022-11-09T22:39:47.640Z,101496.03
2022-11-09T22:42:15.525Z,101497.06
2022-11-09T22:44:43.207Z,101497.59
2022-11-09T22:47:12.357Z,101509.25
2022-11-09T22:49:40.213Z,101506.88
2022-11-09T22:52:07.885Z,101513.47
2022-11-09T22:54:35.512Z,101514.53
2022-11-09T22:57:03.842Z,101517.44
2022-11-09T22:59:31.452Z,101515.84
2022-11-09T23:01:59.175Z,101520.88
2022-11-09T23:04:28.213Z,101526.69
2022-11-09T23:06:55.858Z,101535.69
2022-11-09T23:09:23.561Z,101539.94
2022-11-09T23:11:51.305Z,101544.69
2022-11-09T23:14:39.242Z,101548.38
2022-11-09T23:17:27.473Z,101567.97
2022-11-09T23:19:55.481Z,101558.44
2022-11-09T23:22:23.117Z,101565.84
2022-11-09T23:25:08.192Z,101566.09
2022-11-09T23:27:35.840Z,101567.97
2022-11-09T23:30:04.255Z,101562.69
2022-11-09T23:32:31.861Z,101572.47
2022-11-09T23:35:01.061Z,101576.44
2022-11-09T23:37:28.664Z,101574.56
2022-11-09T23:39:56.474Z,101571.94
2022-11-09T23:42:24.092Z,101575.91
2022-11-09T23:44:51.722Z,101570.84
2022-11-09T23:47:19.411Z,101574.56
2022-11-09T23:49:47.039Z,101574.03
2022-11-09T23:52:16.131Z,101592.25
2022-11-09T23:54:45.547Z,101602.03
2022-11-09T23:57:13.440Z,101595.19
2022-11-09T23:59:41.058Z,101596.75
